Stations météo

réclame
Mon MeteoGroup
Cerezo De Arriba, Espagne (8143): Température de l'air & dewpoint: 15.01.2019 17:00:00 - 21.01.2019 17:00:00 (CET)Cerezo De Arriba, Espagne (8143): Vitesse du vent & gusts: 15.01.2019 17:00:00 - 21.01.2019 17:00:00 (CET)Cerezo De Arriba, Espagne (8143): Direction du vent: 15.01.2019 17:00:00 - 21.01.2019 17:00:00 (CET)Cerezo De Arriba, Espagne (8143): visibility: 15.01.2019 17:00:00 - 21.01.2019 17:00:00 (CET)Cerezo De Arriba, Espagne (8143): Ensoleillement: 15.01.2019 17:00:00 - 21.01.2019 17:00:00 (CET)Cerezo De Arriba, Espagne (8143): Quantités de précipitations: 15.01.2019 17:00:00 - 21.01.2019 17:00:00 (CET)
Date & Time tt [°C] td [°C] ff [km/h] ff [knt] fx [km/h] fx [knt] dd vv [km] sd [min] rr [mm]
21.01.2019 17:00:00 - - - - - - - - - -
21.01.2019 16:00:00 -3,9 -4,2 18 10 43 23 N 1,4 0 0,0
21.01.2019 15:00:00 -3,6 -3,9 14 7 36 19 N 1,4 0 0,0
21.01.2019 14:00:00 -3,4 -3,6 11 6 40 22 N 0,4 0 0,0
21.01.2019 13:00:00 -3,6 -3,9 14 8 39 21 N 0,4 0 -
21.01.2019 12:00:00 -3,9 -4,2 16 9 36 20 N 0,3 0 0,0
21.01.2019 11:00:00 -4,0 -4,2 13 7 34 18 N 0,3 0 0,0
21.01.2019 10:00:00 -4,2 -4,5 13 7 38 20 N 0,3 0 0,0
21.01.2019 09:00:00 -4,3 -4,8 19 11 54 29 N 0,3 0 0,0
21.01.2019 08:00:00 -4,2 -4,5 23 12 55 30 N 0,3 0 0,0
21.01.2019 07:00:00 -4,1 -4,5 20 11 56 30 N 0,3 0 -
21.01.2019 06:00:00 -4,0 -4,2 23 12 46 25 N 0,2 0 0,0
21.01.2019 05:00:00 -4,0 -4,2 21 11 41 22 N 0,2 0 0,0
21.01.2019 04:00:00 -4,0 -4,2 20 11 40 22 N 0,2 0 0,0
21.01.2019 03:00:00 -3,9 -4,2 16 9 35 19 N 0,1 0 0,0
21.01.2019 02:00:00 -3,8 -4,2 19 10 37 20 N 0,1 0 0,0
21.01.2019 01:00:00 -3,6 -3,9 20 11 54 29 N 0,1 0 -
21.01.2019 00:00:00 -3,5 -3,9 31 17 54 29 N 0,1 0 0,0
20.01.2019 23:00:00 -3,5 -3,9 28 15 51 27 N 0,1 0 0,0
20.01.2019 22:00:00 -3,3 -3,6 32 17 53 28 N 0,1 0 0,2
20.01.2019 21:00:00 -3,0 -3,3 29 16 52 28 N 0,1 0 0,2
20.01.2019 20:00:00 -2,8 -3,0 36 20 65 35 N 0,1 0 0,2
20.01.2019 19:00:00 - - - - - - - - - -
20.01.2019 18:00:00 -2,4 -2,5 36 19 71 38 N 0,1 0 0,4
20.01.2019 17:00:00 -2,3 -2,5 20 11 57 31 N 0,1 0 0,2
20.01.2019 16:00:00 -2,3 -2,5 27 15 65 35 NNE 0,1 0 0,2
20.01.2019 15:00:00 -2,3 -2,5 35 19 62 34 N 0,1 0 0,4
20.01.2019 14:00:00 -2,5 -2,7 31 17 58 32 N 0,1 0 0,4
20.01.2019 13:00:00 -3,0 -3,3 37 20 56 30 N 0,1 0 -
20.01.2019 12:00:00 -3,1 -3,3 34 19 68 37 N 0,2 0 0,2
20.01.2019 11:00:00 -3,4 -3,6 34 18 56 31 N 0,1 0 0,4
20.01.2019 10:00:00 -3,3 -3,6 27 15 62 34 N 0,1 0 0,4
20.01.2019 09:00:00 -2,9 -3,0 32 17 57 31 N 0,1 0 0,2
20.01.2019 08:00:00 -2,8 -3,0 21 11 38 20 N 0,2 0 0,4
20.01.2019 07:00:00 -2,5 -2,5 17 9 30 16 NNE 0,7 0 -
20.01.2019 06:00:00 -2,2 -2,2 16 8 35 19 NNE 0,8 0 0,2
20.01.2019 05:00:00 -1,8 -1,7 16 9 40 21 NNE 0,2 0 0,2
20.01.2019 04:00:00 -1,2 -1,2 21 12 39 21 N 0,2 0 0,2
20.01.2019 03:00:00 -0,4 -0,5 10 5 29 16 NNE 0,2 0 0,0
20.01.2019 02:00:00 -0,1 0,0 10 5 44 24 S 0,3 0 0,0
20.01.2019 01:00:00 0,0 0,0 16 9 54 29 ENE 0,5 0 -
20.01.2019 00:00:00 0,6 0,4 19 10 53 29 ENE 0,4 0 0,0
19.01.2019 23:00:00 0,3 0,2 14 7 55 30 NE 2,1 0 0,0
19.01.2019 22:00:00 0,4 0,2 17 9 67 36 WNW 0,6 0 0,0
19.01.2019 21:00:00 0,3 0,2 19 10 58 32 E 2,4 0 0,2
19.01.2019 20:00:00 0,7 0,6 15 8 52 28 NW 2,5 0 0,0
19.01.2019 19:00:00 0,6 0,4 20 11 67 36 NNE 3,0 0 -
19.01.2019 18:00:00 0,8 0,6 19 10 61 33 WNW 0,6 0 0,0
19.01.2019 17:00:00 0,5 0,2 21 12 51 27 NE 3,7 0 0,0
19.01.2019 16:00:00 0,3 0,0 15 8 54 29 E 1,4 0 0,0
19.01.2019 15:00:00 -0,1 -1,2 16 9 43 23 SSW 0,6 0 0,2
19.01.2019 14:00:00 -0,2 -1,4 7 4 32 17 N 1,3 0 0,0
19.01.2019 13:00:00 -0,1 -1,4 10 5 39 21 WSW 1,3 0 -
19.01.2019 12:00:00 -0,8 -2,0 7 4 34 19 ESE 20 0 0,0
19.01.2019 11:00:00 -1,2 -2,7 11 6 38 21 S 20 0 0,0
19.01.2019 10:00:00 -1,9 -3,0 5 3 22 12 SE 20 0 0,0
19.01.2019 09:00:00 -2,1 -2,7 6 4 21 12 SSE 20 0 0,0
19.01.2019 08:00:00 -2,8 -3,0 9 5 23 12 S 20 0 0,0
19.01.2019 07:00:00 -2,8 -3,0 9 5 19 10 SSW 20 0 -
19.01.2019 06:00:00 -2,1 -2,5 5 3 19 10 SSE 20 0 0,0
19.01.2019 05:00:00 -3,9 -4,5 9 5 25 14 SE 0,7 0 0,0
19.01.2019 04:00:00 -4,6 -5,1 5 3 22 12 NNE 1,9 0 0,0
19.01.2019 03:00:00 -3,1 -3,3 8 5 21 11 WSW 18 0 0,0
19.01.2019 02:00:00 -3,0 -3,3 9 5 23 12 S 3,0 0 0,0
19.01.2019 01:00:00 -4,1 -4,5 6 3 20 11 W 0,5 0 -
19.01.2019 00:00:00 -4,1 -4,5 6 4 19 10 W 0,5 0 0,0
18.01.2019 23:00:00 -4,2 -4,5 8 5 26 14 W 0,5 0 0,0
18.01.2019 22:00:00 -4,1 -4,5 7 4 33 18 WSW 0,5 0 0,0
18.01.2019 21:00:00 -4,3 -4,8 10 5 34 18 W 0,1 0 0,0
18.01.2019 20:00:00 -4,1 -4,5 9 5 33 18 W 0,6 0 0,0
18.01.2019 19:00:00 -4,0 -4,2 6 4 26 14 ENE 0,4 0 -
18.01.2019 18:00:00 -3,8 -4,2 5 3 28 15 E 0,9 0 0,0
18.01.2019 17:00:00 -3,7 -3,9 12 6 30 16 NNW 0,8 0 0,0
18.01.2019 16:00:00 -3,5 -4,5 5 3 21 11 E 1,1 0 0,0
18.01.2019 15:00:00 -2,9 -4,2 6 3 21 11 NNW 16 5 0,0
18.01.2019 14:00:00 -3,0 -4,8 5 3 23 13 SSE 20 1 0,0
18.01.2019 13:00:00 -3,3 -5,1 7 4 16 9 W 20 0 -
18.01.2019 12:00:00 -3,0 -5,4 4 2 11 6 S 20 0 0,0
18.01.2019 11:00:00 -3,2 -5,4 3 2 13 7 SSW 20 0 0,0
18.01.2019 10:00:00 -3,7 -7,1 4 2 10 5 SSW 20 0 0,2
18.01.2019 09:00:00 -4,7 -7,8 7 4 16 9 SSE 20 0 0,2
18.01.2019 08:00:00 -5,3 -7,8 8 4 19 10 S 20 0 0,0
18.01.2019 07:00:00 -5,1 -6,7 4 2 13 7 SW 20 0 -
18.01.2019 06:00:00 -5,2 -6,0 2 1 8 4 SSW 4,2 0 0,0
18.01.2019 05:00:00 -4,8 -5,4 4 2 13 7 N 3,2 0 0,0
18.01.2019 04:00:00 -4,5 -5,4 4 2 13 7 SSE 8 0 0,0
18.01.2019 03:00:00 -4,0 -4,8 4 2 10 5 SSE 20 0 0,0
18.01.2019 02:00:00 -4,2 -4,8 3 2 11 6 NE 20 0 0,0
18.01.2019 01:00:00 -5,0 -6,0 5 3 13 7 SE 1,4 0 -
18.01.2019 00:00:00 -4,9 -6,0 7 4 16 8 SE 20 0 0,0
17.01.2019 23:00:00 -4,7 -5,4 4 2 13 7 ESE 20 0 0,0
17.01.2019 22:00:00 -4,4 -4,8 6 3 21 11 NNE 20 0 0,0
17.01.2019 21:00:00 -3,9 -4,5 9 5 24 13 NNW 19 0 0,0
17.01.2019 20:00:00 -3,5 -4,2 14 8 27 15 N 20 0 0,0
17.01.2019 19:00:00 -3,0 -3,3 9 5 22 12 NE 20 0 -
17.01.2019 18:00:00 -2,6 -3,0 8 5 25 14 NE 20 0 0,0
17.01.2019 17:00:00 -2,2 -2,5 6 4 23 12 NNE 9 0 0,0
17.01.2019 16:00:00 -2,1 -2,4 9 5 22 12 NNW - 0 0,0
17.01.2019 15:00:00 -2,1 -2,5 9 5 23 12 N 11 0 0,0
17.01.2019 14:00:00 -1,5 -2,0 13 7 26 14 N 0,9 4 0,0
17.01.2019 13:00:00 -1,4 -2,0 10 6 31 17 NNE 0,9 0 -
17.01.2019 12:00:00 -1,9 -2,2 9 5 30 16 NNE 11 0 0,0
17.01.2019 11:00:00 -2,2 -2,2 5 3 29 16 N 0,7 0 0,4
17.01.2019 10:00:00 -2,2 -2,2 13 7 27 15 N 0,1 0 0,6
17.01.2019 09:00:00 -2,1 -2,2 6 4 13 7 NNE 0,1 0 0,0
17.01.2019 08:00:00 -2,3 -2,5 4 2 13 7 N 0,6 0 0,0
17.01.2019 07:00:00 -2,2 -2,2 3 2 9 5 SE 0,8 0 -
17.01.2019 06:00:00 -2,2 -2,5 7 4 13 7 N 0,4 0 0,0
17.01.2019 05:00:00 -1,7 -2,5 4 2 16 9 W 18 0 0,0
17.01.2019 04:00:00 -1,9 -2,2 3 2 16 9 SSE 0,8 0 0,0
17.01.2019 03:00:00 -1,8 -2,3 7 4 20 11 W - 0 0,0
17.01.2019 02:00:00 -1,9 -3,3 4 2 21 11 WNW 20 0 0,0
17.01.2019 01:00:00 -1,8 -3,0 5 3 19 10 SSW 20 0 -
17.01.2019 00:00:00 -1,8 -3,0 7 4 19 10 S 20 0 0,0
16.01.2019 23:00:00 -1,8 -1,7 7 4 17 9 S 0,5 0 0,0
16.01.2019 22:00:00 -1,9 -2,0 10 5 19 10 SSW 0,2 0 0,0
16.01.2019 21:00:00 -2,2 -2,2 10 6 18 10 SSW 0,8 0 0,0
16.01.2019 20:00:00 -1,9 -2,0 3 2 12 6 NNW 0,5 0 0,0
16.01.2019 19:00:00 -1,5 -1,7 4 2 13 7 W 0,5 0 -
16.01.2019 18:00:00 -0,6 -1,7 6 3 16 8 WSW 0,1 0 0,0
16.01.2019 17:00:00 0,9 -1,4 7 4 17 9 W 13 10 0,0
16.01.2019 16:00:00 3,8 -1,0 8 4 17 9 WSW 19 60 0,0
16.01.2019 15:00:00 5,3 -3,3 5 3 16 8 WSW 20 60 0,0
16.01.2019 14:00:00 4,3 -3,3 7 4 22 12 SSW 20 60 0,0
16.01.2019 13:00:00 3,9 -4,2 6 3 16 9 SSW 20 60 -
16.01.2019 12:00:00 2,3 -4,2 10 5 27 14 SSW 20 26 0,0
16.01.2019 11:00:00 0,8 -5,7 6 3 29 15 SW 20 0 0,0
16.01.2019 10:00:00 0,2 -6,4 5 3 28 15 WSW 20 0 0,0
16.01.2019 09:00:00 1,1 -7,1 12 7 25 14 SSW 20 0 0,0
16.01.2019 08:00:00 1,0 -6,7 15 8 25 14 SSW 20 0 0,0
16.01.2019 07:00:00 1,3 -7,1 13 7 21 11 SSW 20 0 -
16.01.2019 06:00:00 0,5 -6,4 11 6 16 9 SSW 20 0 0,0
16.01.2019 05:00:00 1,1 -8,6 5 3 15 8 SW 20 0 0,0
16.01.2019 04:00:00 2,1 -13,9 12 6 25 13 SSW 20 0 0,0
16.01.2019 03:00:00 2,2 -6,0 3 2 23 12 E 20 0 0,0
16.01.2019 02:00:00 3,1 -10,8 11 6 21 11 S 20 0 0,0
16.01.2019 01:00:00 1,9 -7,8 3 2 11 6 ESE 20 0 -
16.01.2019 00:00:00 3,9 -10,8 19 10 42 23 SSW 20 0 0,0
15.01.2019 23:00:00 4,8 -7,8 24 13 44 24 SSE 20 0 0,0
15.01.2019 22:00:00 4,6 -7,1 4 2 29 16 S 20 0 0,0
15.01.2019 21:00:00 5,3 -7,1 11 6 33 18 SSE 20 0 0,0
15.01.2019 20:00:00 4,8 -7,1 11 6 30 16 SSE 20 0 0,0
15.01.2019 19:00:00 4,6 -6,4 22 12 32 17 S 20 0 -
15.01.2019 18:00:00 4,1 -3,6 3 1 6 4 N 20 0 0,0
15.01.2019 17:00:00 5,4 -4,2 3 2 10 6 NNW 20 9 0,0

tt = Température de l'air
td = dewpoint
ff = Vitesse du vent
fx = gusts
dd = Direction du vent
vv = visibility
sd = Ensoleillement
rr = Quantités de précipitations

stations d'obs. à proximité